sensor_id;sensor_type;location;lat;lon;timestamp;temperature;humidity
25248;DHT22;13191;47.472;11.214;2023-06-22T00:01:05;17.90;99.90
25248;DHT22;13191;47.472;11.214;2023-06-22T00:03:31;17.80;99.90
25248;DHT22;13191;47.472;11.214;2023-06-22T00:05:56;17.90;99.90
25248;DHT22;13191;47.472;11.214;2023-06-22T00:08:22;17.90;99.90
25248;DHT22;13191;47.472;11.214;2023-06-22T00:10:47;17.70;99.90
25248;DHT22;13191;47.472;11.214;2023-06-22T00:13:13;17.60;99.90
25248;DHT22;13191;47.472;11.214;2023-06-22T00:15:39;17.60;99.90
25248;DHT22;13191;47.472;11.214;2023-06-22T00:18:06;17.70;99.90
25248;DHT22;13191;47.472;11.214;2023-06-22T00:20:31;17.50;99.90
25248;DHT22;13191;47.472;11.214;2023-06-22T00:22:58;17.50;99.90
25248;DHT22;13191;47.472;11.214;2023-06-22T00:25:23;17.50;99.90
25248;DHT22;13191;47.472;11.214;2023-06-22T00:27:49;17.30;99.90
25248;DHT22;13191;47.472;11.214;2023-06-22T00:30:18;17.20;99.90
25248;DHT22;13191;47.472;11.214;2023-06-22T00:32:44;17.30;99.90
25248;DHT22;13191;47.472;11.214;2023-06-22T00:35:09;17.30;99.90
25248;DHT22;13191;47.472;11.214;2023-06-22T00:37:36;17.30;99.90
25248;DHT22;13191;47.472;11.214;2023-06-22T00:40:02;17.30;99.90
25248;DHT22;13191;47.472;11.214;2023-06-22T00:42:28;17.30;99.90
25248;DHT22;13191;47.472;11.214;2023-06-22T00:44:54;17.20;99.90
25248;DHT22;13191;47.472;11.214;2023-06-22T00:47:20;17.20;99.90
25248;DHT22;13191;47.472;11.214;2023-06-22T00:49:46;17.20;99.90
25248;DHT22;13191;47.472;11.214;2023-06-22T00:52:12;17.20;99.90
25248;DHT22;13191;47.472;11.214;2023-06-22T00:54:42;17.20;99.90
25248;DHT22;13191;47.472;11.214;2023-06-22T00:57:13;17.30;99.90
25248;DHT22;13191;47.472;11.214;2023-06-22T00:59:44;17.10;99.90
25248;DHT22;13191;47.472;11.214;2023-06-22T01:02:10;17.00;99.90
25248;DHT22;13191;47.472;11.214;2023-06-22T01:04:36;16.90;99.90
25248;DHT22;13191;47.472;11.214;2023-06-22T01:09:33;16.80;99.90
25248;DHT22;13191;47.472;11.214;2023-06-22T01:12:02;16.80;99.90
25248;DHT22;13191;47.472;11.214;2023-06-22T01:14:37;16.80;99.90
25248;DHT22;13191;47.472;11.214;2023-06-22T01:17:03;16.80;99.90
25248;DHT22;13191;47.472;11.214;2023-06-22T01:19:49;16.80;99.90
25248;DHT22;13191;47.472;11.214;2023-06-22T01:22:24;16.80;99.90
25248;DHT22;13191;47.472;11.214;2023-06-22T01:27:33;16.80;99.90
25248;DHT22;13191;47.472;11.214;2023-06-22T01:30:02;16.80;99.90
25248;DHT22;13191;47.472;11.214;2023-06-22T01:32:32;16.80;99.90
25248;DHT22;13191;47.472;11.214;2023-06-22T01:35:01;16.90;99.90
25248;DHT22;13191;47.472;11.214;2023-06-22T01:37:28;16.80;99.90
25248;DHT22;13191;47.472;11.214;2023-06-22T01:39:55;16.80;99.90
25248;DHT22;13191;47.472;11.214;2023-06-22T01:42:21;16.80;99.90
25248;DHT22;13191;47.472;11.214;2023-06-22T01:44:46;16.70;99.90
25248;DHT22;13191;47.472;11.214;2023-06-22T01:47:12;16.70;99.90
25248;DHT22;13191;47.472;11.214;2023-06-22T01:49:39;16.70;99.90
25248;DHT22;13191;47.472;11.214;2023-06-22T01:52:05;16.60;99.90
25248;DHT22;13191;47.472;11.214;2023-06-22T01:54:31;16.50;99.90
25248;DHT22;13191;47.472;11.214;2023-06-22T01:56:57;16.50;99.90
25248;DHT22;13191;47.472;11.214;2023-06-22T01:59:25;16.60;99.90
25248;DHT22;13191;47.472;11.214;2023-06-22T02:01:54;16.60;99.90
25248;DHT22;13191;47.472;11.214;2023-06-22T02:04:27;16.40;99.90
25248;DHT22;13191;47.472;11.214;2023-06-22T02:06:55;16.40;99.90
25248;DHT22;13191;47.472;11.214;2023-06-22T02:09:21;16.50;99.90
25248;DHT22;13191;47.472;11.214;2023-06-22T02:11:48;16.50;99.90
25248;DHT22;13191;47.472;11.214;2023-06-22T02:14:17;16.40;99.90
25248;DHT22;13191;47.472;11.214;2023-06-22T02:16:43;16.40;99.90
25248;DHT22;13191;47.472;11.214;2023-06-22T02:19:08;16.40;99.90
25248;DHT22;13191;47.472;11.214;2023-06-22T02:21:34;16.40;99.90
25248;DHT22;13191;47.472;11.214;2023-06-22T02:23:59;16.40;99.90
25248;DHT22;13191;47.472;11.214;2023-06-22T02:26:25;16.20;99.90
25248;DHT22;13191;47.472;11.214;2023-06-22T02:28:51;16.20;99.90
25248;DHT22;13191;47.472;11.214;2023-06-22T02:31:17;16.20;99.90
25248;DHT22;13191;47.472;11.214;2023-06-22T02:33:42;16.20;99.90
25248;DHT22;13191;47.472;11.214;2023-06-22T02:36:09;16.20;99.90
25248;DHT22;13191;47.472;11.214;2023-06-22T02:38:35;16.10;99.90
25248;DHT22;13191;47.472;11.214;2023-06-22T02:41:02;16.10;99.90
25248;DHT22;13191;47.472;11.214;2023-06-22T02:43:27;16.10;99.90
25248;DHT22;13191;47.472;11.214;2023-06-22T02:45:53;16.10;99.90
25248;DHT22;13191;47.472;11.214;2023-06-22T02:48:18;16.10;99.90
25248;DHT22;13191;47.472;11.214;2023-06-22T02:50:44;16.00;99.90
25248;DHT22;13191;47.472;11.214;2023-06-22T02:53:09;15.80;99.90
25248;DHT22;13191;47.472;11.214;2023-06-22T02:55:35;15.80;99.90
25248;DHT22;13191;47.472;11.214;2023-06-22T02:58:00;15.80;99.90
25248;DHT22;13191;47.472;11.214;2023-06-22T03:00:29;15.80;99.90
25248;DHT22;13191;47.472;11.214;2023-06-22T03:02:55;15.80;99.90
25248;DHT22;13191;47.472;11.214;2023-06-22T03:05:21;15.90;99.90
25248;DHT22;13191;47.472;11.214;2023-06-22T03:07:46;15.90;99.90
25248;DHT22;13191;47.472;11.214;2023-06-22T03:10:13;15.80;99.90
25248;DHT22;13191;47.472;11.214;2023-06-22T03:12:39;15.80;99.90
25248;DHT22;13191;47.472;11.214;2023-06-22T03:15:05;15.70;99.90
25248;DHT22;13191;47.472;11.214;2023-06-22T03:17:31;15.80;99.90
25248;DHT22;13191;47.472;11.214;2023-06-22T03:19:56;15.80;99.90
25248;DHT22;13191;47.472;11.214;2023-06-22T03:22:22;15.70;99.90
25248;DHT22;13191;47.472;11.214;2023-06-22T03:24:47;15.70;99.90
25248;DHT22;13191;47.472;11.214;2023-06-22T03:27:13;15.70;99.90
25248;DHT22;13191;47.472;11.214;2023-06-22T03:29:38;15.80;99.90
25248;DHT22;13191;47.472;11.214;2023-06-22T03:32:04;15.80;99.90
25248;DHT22;13191;47.472;11.214;2023-06-22T03:34:31;15.70;99.90
25248;DHT22;13191;47.472;11.214;2023-06-22T03:36:59;15.60;99.90
25248;DHT22;13191;47.472;11.214;2023-06-22T03:39:24;15.60;99.90
25248;DHT22;13191;47.472;11.214;2023-06-22T03:41:50;15.40;99.90
25248;DHT22;13191;47.472;11.214;2023-06-22T03:44:15;15.40;99.90
25248;DHT22;13191;47.472;11.214;2023-06-22T03:46:40;15.40;99.90
25248;DHT22;13191;47.472;11.214;2023-06-22T03:49:06;15.60;99.90
25248;DHT22;13191;47.472;11.214;2023-06-22T03:51:32;15.60;99.90
25248;DHT22;13191;47.472;11.214;2023-06-22T03:53:58;15.70;99.90
25248;DHT22;13191;47.472;11.214;2023-06-22T03:56:23;15.70;99.90
25248;DHT22;13191;47.472;11.214;2023-06-22T03:58:48;15.80;99.90
25248;DHT22;13191;47.472;11.214;2023-06-22T04:01:14;15.80;99.90
25248;DHT22;13191;47.472;11.214;2023-06-22T04:03:42;15.80;99.90
25248;DHT22;13191;47.472;11.214;2023-06-22T04:06:07;15.80;99.90
25248;DHT22;13191;47.472;11.214;2023-06-22T04:08:33;15.90;99.90
25248;DHT22;13191;47.472;11.214;2023-06-22T04:10:58;15.90;99.90
25248;DHT22;13191;47.472;11.214;2023-06-22T04:13:24;15.90;99.90
25248;DHT22;13191;47.472;11.214;2023-06-22T04:15:49;16.00;99.90
25248;DHT22;13191;47.472;11.214;2023-06-22T04:18:14;16.00;99.90
25248;DHT22;13191;47.472;11.214;2023-06-22T04:20:40;16.10;99.90
25248;DHT22;13191;47.472;11.214;2023-06-22T04:23:05;16.10;99.90
25248;DHT22;13191;47.472;11.214;2023-06-22T04:25:31;16.10;99.90
25248;DHT22;13191;47.472;11.214;2023-06-22T04:27:56;16.00;99.90
25248;DHT22;13191;47.472;11.214;2023-06-22T04:30:22;16.00;99.90
25248;DHT22;13191;47.472;11.214;2023-06-22T04:32:47;16.10;99.90
25248;DHT22;13191;47.472;11.214;2023-06-22T04:35:21;16.10;99.90
25248;DHT22;13191;47.472;11.214;2023-06-22T04:37:47;16.20;99.90
25248;DHT22;13191;47.472;11.214;2023-06-22T04:40:14;16.10;99.90
25248;DHT22;13191;47.472;11.214;2023-06-22T04:42:40;16.10;99.90
25248;DHT22;13191;47.472;11.214;2023-06-22T04:45:06;16.10;99.90
25248;DHT22;13191;47.472;11.214;2023-06-22T04:47:31;16.20;99.90
25248;DHT22;13191;47.472;11.214;2023-06-22T04:49:57;16.20;99.90
25248;DHT22;13191;47.472;11.214;2023-06-22T04:52:22;16.10;99.90
25248;DHT22;13191;47.472;11.214;2023-06-22T04:54:48;16.20;99.90
25248;DHT22;13191;47.472;11.214;2023-06-22T04:57:14;16.30;99.90
25248;DHT22;13191;47.472;11.214;2023-06-22T04:59:40;16.30;99.90
25248;DHT22;13191;47.472;11.214;2023-06-22T05:02:07;16.40;99.90
25248;DHT22;13191;47.472;11.214;2023-06-22T05:04:32;16.40;99.90
25248;DHT22;13191;47.472;11.214;2023-06-22T05:07:01;16.40;99.90
25248;DHT22;13191;47.472;11.214;2023-06-22T05:09:27;16.40;99.90
25248;DHT22;13191;47.472;11.214;2023-06-22T05:11:53;16.40;99.90
25248;DHT22;13191;47.472;11.214;2023-06-22T05:14:18;16.50;99.90
25248;DHT22;13191;47.472;11.214;2023-06-22T05:16:44;16.50;99.90
25248;DHT22;13191;47.472;11.214;2023-06-22T05:19:10;16.50;99.90
25248;DHT22;13191;47.472;11.214;2023-06-22T05:21:36;16.60;99.90
25248;DHT22;13191;47.472;11.214;2023-06-22T05:24:01;16.70;99.90
25248;DHT22;13191;47.472;11.214;2023-06-22T05:26:31;16.80;99.90
25248;DHT22;13191;47.472;11.214;2023-06-22T05:28:57;16.80;99.90
25248;DHT22;13191;47.472;11.214;2023-06-22T05:31:23;16.90;99.90
25248;DHT22;13191;47.472;11.214;2023-06-22T05:33:50;17.00;99.90
25248;DHT22;13191;47.472;11.214;2023-06-22T05:36:16;17.00;99.90
25248;DHT22;13191;47.472;11.214;2023-06-22T05:38:42;17.10;99.90
25248;DHT22;13191;47.472;11.214;2023-06-22T05:41:07;17.20;99.90
25248;DHT22;13191;47.472;11.214;2023-06-22T05:43:33;17.30;99.90
25248;DHT22;13191;47.472;11.214;2023-06-22T05:45:59;17.40;99.90
25248;DHT22;13191;47.472;11.214;2023-06-22T05:48:25;17.40;99.90
25248;DHT22;13191;47.472;11.214;2023-06-22T05:50:50;17.50;99.90
25248;DHT22;13191;47.472;11.214;2023-06-22T05:53:16;17.60;99.90
25248;DHT22;13191;47.472;11.214;2023-06-22T05:55:41;17.60;99.90
25248;DHT22;13191;47.472;11.214;2023-06-22T05:58:08;17.80;99.90
25248;DHT22;13191;47.472;11.214;2023-06-22T06:00:34;17.80;99.90
25248;DHT22;13191;47.472;11.214;2023-06-22T06:02:59;17.80;99.90
25248;DHT22;13191;47.472;11.214;2023-06-22T06:05:32;17.90;99.90
25248;DHT22;13191;47.472;11.214;2023-06-22T06:07:59;18.00;99.90
25248;DHT22;13191;47.472;11.214;2023-06-22T06:10:24;18.10;99.90
25248;DHT22;13191;47.472;11.214;2023-06-22T06:12:50;18.20;99.90
25248;DHT22;13191;47.472;11.214;2023-06-22T06:15:16;18.30;99.90
25248;DHT22;13191;47.472;11.214;2023-06-22T06:17:45;18.40;99.90
25248;DHT22;13191;47.472;11.214;2023-06-22T06:20:11;18.40;99.90
25248;DHT22;13191;47.472;11.214;2023-06-22T06:22:37;18.50;99.90
25248;DHT22;13191;47.472;11.214;2023-06-22T06:25:02;18.60;99.90
25248;DHT22;13191;47.472;11.214;2023-06-22T06:27:28;18.70;99.90
25248;DHT22;13191;47.472;11.214;2023-06-22T06:29:54;18.80;99.90
25248;DHT22;13191;47.472;11.214;2023-06-22T06:32:20;18.90;99.90
25248;DHT22;13191;47.472;11.214;2023-06-22T06:34:45;19.00;99.90
25248;DHT22;13191;47.472;11.214;2023-06-22T06:37:11;19.10;99.90
25248;DHT22;13191;47.472;11.214;2023-06-22T06:39:36;19.20;99.90
25248;DHT22;13191;47.472;11.214;2023-06-22T06:42:02;19.20;99.90
25248;DHT22;13191;47.472;11.214;2023-06-22T06:44:27;19.30;99.90
25248;DHT22;13191;47.472;11.214;2023-06-22T06:46:53;19.30;99.90
25248;DHT22;13191;47.472;11.214;2023-06-22T06:49:19;19.40;99.90
25248;DHT22;13191;47.472;11.214;2023-06-22T06:51:45;19.40;99.90
25248;DHT22;13191;47.472;11.214;2023-06-22T06:54:10;19.40;99.90
25248;DHT22;13191;47.472;11.214;2023-06-22T06:56:36;19.60;99.90
25248;DHT22;13191;47.472;11.214;2023-06-22T06:59:01;19.60;99.90
25248;DHT22;13191;47.472;11.214;2023-06-22T07:01:27;19.70;99.90
25248;DHT22;13191;47.472;11.214;2023-06-22T07:03:52;19.80;99.90
25248;DHT22;13191;47.472;11.214;2023-06-22T07:06:18;20.00;99.90
25248;DHT22;13191;47.472;11.214;2023-06-22T07:13:47;20.20;99.90
25248;DHT22;13191;47.472;11.214;2023-06-22T07:16:12;20.30;99.90
25248;DHT22;13191;47.472;11.214;2023-06-22T07:18:39;20.50;99.90
25248;DHT22;13191;47.472;11.214;2023-06-22T07:21:04;20.50;99.90
25248;DHT22;13191;47.472;11.214;2023-06-22T07:23:32;20.70;99.90
25248;DHT22;13191;47.472;11.214;2023-06-22T07:25:57;20.80;99.90
25248;DHT22;13191;47.472;11.214;2023-06-22T07:28:23;21.00;99.90
25248;DHT22;13191;47.472;11.214;2023-06-22T07:30:48;21.10;99.90
25248;DHT22;13191;47.472;11.214;2023-06-22T07:33:14;21.20;99.90
25248;DHT22;13191;47.472;11.214;2023-06-22T07:35:39;21.40;99.90
25248;DHT22;13191;47.472;11.214;2023-06-22T07:38:05;21.40;99.90
25248;DHT22;13191;47.472;11.214;2023-06-22T07:40:30;21.50;99.90
25248;DHT22;13191;47.472;11.214;2023-06-22T07:42:56;21.60;99.90
25248;DHT22;13191;47.472;11.214;2023-06-22T07:45:21;21.70;99.90
25248;DHT22;13191;47.472;11.214;2023-06-22T07:47:47;21.80;99.90
25248;DHT22;13191;47.472;11.214;2023-06-22T07:50:12;21.80;99.90
25248;DHT22;13191;47.472;11.214;2023-06-22T07:52:37;21.90;99.90
25248;DHT22;13191;47.472;11.214;2023-06-22T07:55:03;22.00;99.90
25248;DHT22;13191;47.472;11.214;2023-06-22T07:57:29;22.20;99.90
25248;DHT22;13191;47.472;11.214;2023-06-22T07:59:59;22.30;99.90
25248;DHT22;13191;47.472;11.214;2023-06-22T08:02:25;22.30;99.90
25248;DHT22;13191;47.472;11.214;2023-06-22T08:04:50;22.40;99.90
25248;DHT22;13191;47.472;11.214;2023-06-22T08:07:16;22.50;99.90
25248;DHT22;13191;47.472;11.214;2023-06-22T08:09:48;22.60;99.90
25248;DHT22;13191;47.472;11.214;2023-06-22T08:12:14;22.70;99.90
25248;DHT22;13191;47.472;11.214;2023-06-22T08:14:41;22.90;99.90
25248;DHT22;13191;47.472;11.214;2023-06-22T08:17:07;23.10;99.90
25248;DHT22;13191;47.472;11.214;2023-06-22T08:19:32;23.30;99.90
25248;DHT22;13191;47.472;11.214;2023-06-22T08:21:58;23.40;99.90
25248;DHT22;13191;47.472;11.214;2023-06-22T08:24:23;23.60;99.90
25248;DHT22;13191;47.472;11.214;2023-06-22T08:26:51;23.70;99.90
25248;DHT22;13191;47.472;11.214;2023-06-22T08:29:17;23.90;99.90
25248;DHT22;13191;47.472;11.214;2023-06-22T08:31:43;24.00;99.90
25248;DHT22;13191;47.472;11.214;2023-06-22T08:34:08;24.10;99.90
25248;DHT22;13191;47.472;11.214;2023-06-22T08:36:34;24.10;99.90
25248;DHT22;13191;47.472;11.214;2023-06-22T08:39:03;24.30;99.90
25248;DHT22;13191;47.472;11.214;2023-06-22T08:41:29;24.40;99.90
25248;DHT22;13191;47.472;11.214;2023-06-22T08:43:54;24.50;99.90
25248;DHT22;13191;47.472;11.214;2023-06-22T08:46:20;24.70;99.90
25248;DHT22;13191;47.472;11.214;2023-06-22T08:48:48;24.80;99.90
25248;DHT22;13191;47.472;11.214;2023-06-22T08:51:14;25.00;99.90
25248;DHT22;13191;47.472;11.214;2023-06-22T08:53:39;25.00;99.90
25248;DHT22;13191;47.472;11.214;2023-06-22T08:56:05;25.10;99.90
25248;DHT22;13191;47.472;11.214;2023-06-22T08:58:30;25.20;99.90
25248;DHT22;13191;47.472;11.214;2023-06-22T09:00:56;25.30;99.90
25248;DHT22;13191;47.472;11.214;2023-06-22T09:03:21;25.30;99.90
25248;DHT22;13191;47.472;11.214;2023-06-22T09:05:47;25.40;99.90
25248;DHT22;13191;47.472;11.214;2023-06-22T09:08:12;25.60;99.90
25248;DHT22;13191;47.472;11.214;2023-06-22T09:10:37;25.60;99.90
25248;DHT22;13191;47.472;11.214;2023-06-22T09:13:03;25.70;99.90
25248;DHT22;13191;47.472;11.214;2023-06-22T09:15:28;25.90;99.90
25248;DHT22;13191;47.472;11.214;2023-06-22T09:17:54;25.90;99.90
25248;DHT22;13191;47.472;11.214;2023-06-22T09:20:20;25.90;99.90
25248;DHT22;13191;47.472;11.214;2023-06-22T09:22:45;26.00;99.90
25248;DHT22;13191;47.472;11.214;2023-06-22T09:25:11;26.00;99.90
25248;DHT22;13191;47.472;11.214;2023-06-22T09:27:37;26.10;99.90
25248;DHT22;13191;47.472;11.214;2023-06-22T09:30:02;26.10;99.90
25248;DHT22;13191;47.472;11.214;2023-06-22T09:32:29;26.20;99.90
25248;DHT22;13191;47.472;11.214;2023-06-22T09:34:54;26.30;99.90
25248;DHT22;13191;47.472;11.214;2023-06-22T09:37:20;26.30;99.90
25248;DHT22;13191;47.472;11.214;2023-06-22T09:39:45;26.30;99.90
25248;DHT22;13191;47.472;11.214;2023-06-22T09:42:11;26.40;99.90
25248;DHT22;13191;47.472;11.214;2023-06-22T09:44:38;26.40;99.90
25248;DHT22;13191;47.472;11.214;2023-06-22T09:47:04;26.40;99.90
25248;DHT22;13191;47.472;11.214;2023-06-22T09:49:29;26.40;99.90
25248;DHT22;13191;47.472;11.214;2023-06-22T09:51:55;26.50;99.90
25248;DHT22;13191;47.472;11.214;2023-06-22T09:54:20;26.40;99.90
25248;DHT22;13191;47.472;11.214;2023-06-22T09:56:46;26.40;99.90
25248;DHT22;13191;47.472;11.214;2023-06-22T09:59:11;26.40;99.90
25248;DHT22;13191;47.472;11.214;2023-06-22T10:01:37;26.40;99.90
25248;DHT22;13191;47.472;11.214;2023-06-22T10:04:02;26.40;99.90
25248;DHT22;13191;47.472;11.214;2023-06-22T10:06:28;26.30;99.90
25248;DHT22;13191;47.472;11.214;2023-06-22T10:08:53;26.40;99.90
25248;DHT22;13191;47.472;11.214;2023-06-22T10:11:19;26.40;99.90
25248;DHT22;13191;47.472;11.214;2023-06-22T10:13:44;26.40;99.90
25248;DHT22;13191;47.472;11.214;2023-06-22T10:16:10;26.40;99.90
25248;DHT22;13191;47.472;11.214;2023-06-22T10:18:35;26.50;99.90
25248;DHT22;13191;47.472;11.214;2023-06-22T10:21:01;26.60;99.90
25248;DHT22;13191;47.472;11.214;2023-06-22T10:23:26;26.70;99.90
25248;DHT22;13191;47.472;11.214;2023-06-22T10:25:52;26.80;99.90
25248;DHT22;13191;47.472;11.214;2023-06-22T10:28:17;26.90;99.90
25248;DHT22;13191;47.472;11.214;2023-06-22T10:30:43;27.00;99.90
25248;DHT22;13191;47.472;11.214;2023-06-22T10:33:09;27.00;99.90
25248;DHT22;13191;47.472;11.214;2023-06-22T10:35:35;27.10;99.90
25248;DHT22;13191;47.472;11.214;2023-06-22T10:38:00;27.20;99.90
25248;DHT22;13191;47.472;11.214;2023-06-22T10:40:26;27.20;99.90
25248;DHT22;13191;47.472;11.214;2023-06-22T10:42:51;27.30;99.90
25248;DHT22;13191;47.472;11.214;2023-06-22T10:45:17;27.40;99.90
25248;DHT22;13191;47.472;11.214;2023-06-22T10:47:42;27.40;99.90
25248;DHT22;13191;47.472;11.214;2023-06-22T10:50:08;27.50;99.90
25248;DHT22;13191;47.472;11.214;2023-06-22T10:52:34;27.50;99.90
25248;DHT22;13191;47.472;11.214;2023-06-22T10:54:59;27.60;99.90
25248;DHT22;13191;47.472;11.214;2023-06-22T10:57:25;27.70;99.90
25248;DHT22;13191;47.472;11.214;2023-06-22T10:59:50;27.80;99.90
25248;DHT22;13191;47.472;11.214;2023-06-22T11:02:16;27.90;99.90
25248;DHT22;13191;47.472;11.214;2023-06-22T11:04:41;28.00;99.90
25248;DHT22;13191;47.472;11.214;2023-06-22T11:07:07;28.10;99.90
25248;DHT22;13191;47.472;11.214;2023-06-22T11:09:32;28.20;99.90
25248;DHT22;13191;47.472;11.214;2023-06-22T11:11:58;28.20;99.90
25248;DHT22;13191;47.472;11.214;2023-06-22T11:14:24;28.20;99.90
25248;DHT22;13191;47.472;11.214;2023-06-22T11:16:49;28.40;99.90
25248;DHT22;13191;47.472;11.214;2023-06-22T11:19:15;28.40;99.90
25248;DHT22;13191;47.472;11.214;2023-06-22T11:21:41;28.50;99.90
25248;DHT22;13191;47.472;11.214;2023-06-22T11:24:06;28.50;99.90
25248;DHT22;13191;47.472;11.214;2023-06-22T11:26:32;28.60;99.90
25248;DHT22;13191;47.472;11.214;2023-06-22T11:28:58;28.60;99.90
25248;DHT22;13191;47.472;11.214;2023-06-22T11:31:23;28.80;99.90
25248;DHT22;13191;47.472;11.214;2023-06-22T11:33:49;28.90;99.90
25248;DHT22;13191;47.472;11.214;2023-06-22T11:36:15;28.90;99.90
25248;DHT22;13191;47.472;11.214;2023-06-22T11:38:41;29.00;99.90
25248;DHT22;13191;47.472;11.214;2023-06-22T11:41:06;29.10;99.90
25248;DHT22;13191;47.472;11.214;2023-06-22T11:43:32;29.20;99.90
25248;DHT22;13191;47.472;11.214;2023-06-22T11:45:58;29.30;99.90
25248;DHT22;13191;47.472;11.214;2023-06-22T11:48:24;29.30;99.90
25248;DHT22;13191;47.472;11.214;2023-06-22T11:50:50;29.40;99.90
25248;DHT22;13191;47.472;11.214;2023-06-22T11:53:15;29.60;99.90
25248;DHT22;13191;47.472;11.214;2023-06-22T11:55:43;29.70;99.90
25248;DHT22;13191;47.472;11.214;2023-06-22T11:58:08;29.80;99.90
25248;DHT22;13191;47.472;11.214;2023-06-22T12:00:34;29.80;99.90
25248;DHT22;13191;47.472;11.214;2023-06-22T12:02:59;29.90;99.90
25248;DHT22;13191;47.472;11.214;2023-06-22T12:05:24;29.90;99.90
25248;DHT22;13191;47.472;11.214;2023-06-22T12:07:52;30.10;99.90
25248;DHT22;13191;47.472;11.214;2023-06-22T12:10:18;30.20;99.90
25248;DHT22;13191;47.472;11.214;2023-06-22T12:12:43;30.40;99.90
25248;DHT22;13191;47.472;11.214;2023-06-22T12:15:09;30.60;99.90
25248;DHT22;13191;47.472;11.214;2023-06-22T12:29:48;31.10;99.90
25248;DHT22;13191;47.472;11.214;2023-06-22T12:32:13;31.20;99.90
25248;DHT22;13191;47.472;11.214;2023-06-22T12:34:40;31.30;98.60
25248;DHT22;13191;47.472;11.214;2023-06-22T12:37:05;31.30;98.80
25248;DHT22;13191;47.472;11.214;2023-06-22T12:39:31;31.40;98.10
25248;DHT22;13191;47.472;11.214;2023-06-22T12:41:57;31.40;97.50
25248;DHT22;13191;47.472;11.214;2023-06-22T12:44:22;31.40;95.90
25248;DHT22;13191;47.472;11.214;2023-06-22T12:46:48;31.40;95.50
25248;DHT22;13191;47.472;11.214;2023-06-22T12:49:13;31.50;96.20
25248;DHT22;13191;47.472;11.214;2023-06-22T12:51:42;31.50;96.10
25248;DHT22;13191;47.472;11.214;2023-06-22T12:54:08;31.50;95.40
25248;DHT22;13191;47.472;11.214;2023-06-22T12:56:34;31.50;95.70
25248;DHT22;13191;47.472;11.214;2023-06-22T12:58:59;31.50;96.80
25248;DHT22;13191;47.472;11.214;2023-06-22T13:01:27;31.60;97.90
25248;DHT22;13191;47.472;11.214;2023-06-22T13:03:52;31.60;97.40
25248;DHT22;13191;47.472;11.214;2023-06-22T13:06:18;31.70;97.70
25248;DHT22;13191;47.472;11.214;2023-06-22T13:08:43;31.80;98.40
25248;DHT22;13191;47.472;11.214;2023-06-22T13:11:09;31.90;99.00
25248;DHT22;13191;47.472;11.214;2023-06-22T13:13:34;31.90;98.90
25248;DHT22;13191;47.472;11.214;2023-06-22T13:15:59;31.90;97.20
25248;DHT22;13191;47.472;11.214;2023-06-22T13:18:25;31.90;96.10
25248;DHT22;13191;47.472;11.214;2023-06-22T13:20:50;31.90;95.80
25248;DHT22;13191;47.472;11.214;2023-06-22T13:23:16;31.90;96.70
25248;DHT22;13191;47.472;11.214;2023-06-22T13:25:41;32.00;97.50
25248;DHT22;13191;47.472;11.214;2023-06-22T13:28:07;32.10;97.40
25248;DHT22;13191;47.472;11.214;2023-06-22T13:30:33;32.10;96.40
25248;DHT22;13191;47.472;11.214;2023-06-22T13:32:59;32.20;97.00
25248;DHT22;13191;47.472;11.214;2023-06-22T13:35:24;32.20;98.10
25248;DHT22;13191;47.472;11.214;2023-06-22T13:37:50;32.20;94.60
25248;DHT22;13191;47.472;11.214;2023-06-22T13:40:15;32.20;94.60
25248;DHT22;13191;47.472;11.214;2023-06-22T13:42:41;32.20;95.30
25248;DHT22;13191;47.472;11.214;2023-06-22T13:45:07;32.30;94.60
25248;DHT22;13191;47.472;11.214;2023-06-22T13:47:33;32.40;94.50
25248;DHT22;13191;47.472;11.214;2023-06-22T13:49:58;32.40;93.80
25248;DHT22;13191;47.472;11.214;2023-06-22T13:52:24;32.40;94.70
25248;DHT22;13191;47.472;11.214;2023-06-22T13:54:49;32.50;94.30
25248;DHT22;13191;47.472;11.214;2023-06-22T13:57:15;32.60;93.50
25248;DHT22;13191;47.472;11.214;2023-06-22T13:59:40;32.60;93.30
25248;DHT22;13191;47.472;11.214;2023-06-22T14:02:06;32.70;93.80
25248;DHT22;13191;47.472;11.214;2023-06-22T14:04:31;32.60;93.60
25248;DHT22;13191;47.472;11.214;2023-06-22T14:06:57;32.60;93.10
25248;DHT22;13191;47.472;11.214;2023-06-22T14:09:22;32.60;92.40
25248;DHT22;13191;47.472;11.214;2023-06-22T14:11:48;32.60;92.50
25248;DHT22;13191;47.472;11.214;2023-06-22T14:14:13;32.60;92.70
25248;DHT22;13191;47.472;11.214;2023-06-22T14:16:39;32.60;92.90
25248;DHT22;13191;47.472;11.214;2023-06-22T14:19:04;32.60;92.70
25248;DHT22;13191;47.472;11.214;2023-06-22T14:21:30;32.50;94.60
25248;DHT22;13191;47.472;11.214;2023-06-22T14:23:55;32.40;95.00
25248;DHT22;13191;47.472;11.214;2023-06-22T14:26:21;32.30;95.90
25248;DHT22;13191;47.472;11.214;2023-06-22T14:28:47;32.20;93.30
25248;DHT22;13191;47.472;11.214;2023-06-22T14:31:14;32.20;92.70
25248;DHT22;13191;47.472;11.214;2023-06-22T14:33:40;32.20;93.20
25248;DHT22;13191;47.472;11.214;2023-06-22T14:36:05;32.10;95.60
25248;DHT22;13191;47.472;11.214;2023-06-22T14:38:31;32.00;97.70
25248;DHT22;13191;47.472;11.214;2023-06-22T14:40:56;32.00;98.80
25248;DHT22;13191;47.472;11.214;2023-06-22T14:43:21;32.00;99.40
25248;DHT22;13191;47.472;11.214;2023-06-22T14:45:47;31.90;99.90
25248;DHT22;13191;47.472;11.214;2023-06-22T14:48:12;31.70;95.10
25248;DHT22;13191;47.472;11.214;2023-06-22T14:50:38;31.80;94.30
25248;DHT22;13191;47.472;11.214;2023-06-22T14:53:03;31.70;94.60
25248;DHT22;13191;47.472;11.214;2023-06-22T14:55:29;31.70;93.80
25248;DHT22;13191;47.472;11.214;2023-06-22T14:57:54;31.70;93.80
25248;DHT22;13191;47.472;11.214;2023-06-22T15:00:20;31.90;93.90
25248;DHT22;13191;47.472;11.214;2023-06-22T15:02:45;31.90;93.40
25248;DHT22;13191;47.472;11.214;2023-06-22T15:05:11;32.00;92.80
25248;DHT22;13191;47.472;11.214;2023-06-22T15:07:36;32.20;93.20
25248;DHT22;13191;47.472;11.214;2023-06-22T15:10:01;32.20;93.90
25248;DHT22;13191;47.472;11.214;2023-06-22T15:12:27;32.20;94.10
25248;DHT22;13191;47.472;11.214;2023-06-22T15:14:52;32.20;95.80
25248;DHT22;13191;47.472;11.214;2023-06-22T15:17:18;32.00;97.90
25248;DHT22;13191;47.472;11.214;2023-06-22T15:19:44;31.90;98.90
25248;DHT22;13191;47.472;11.214;2023-06-22T15:22:10;31.60;99.60
25248;DHT22;13191;47.472;11.214;2023-06-22T15:24:36;31.60;99.90
25248;DHT22;13191;47.472;11.214;2023-06-22T15:27:02;31.60;99.90
25248;DHT22;13191;47.472;11.214;2023-06-22T15:29:28;31.50;99.10